• Join FlightAware (Why Join?)
  • Login
  • US Flag 
03:44AM EDT


 

Airport Tracker/Info


-or-


 

Live Flight TrackerFlight Track Log ✈ N634K ✈ 09-May-2013 ✈ KPBX - KLOU

Flight Track Log - Related Links

Times and Time Zones

All times are in EDT time to prevent confusion due to time zone crossing. See the N634K flight status page for this flight to view local times or setup timezone preferences in your user account.

Time Position Orientation Groundspeed Altitude Reporting Facility
EDT Latitude Longitude Course Direction KTS MPH feet Rate Location/Type
02:43PM 37.5308 -82.6697 287° West 136 157 3,500  Level Indianapolis Center
02:44PM 37.5406 -82.7100 287° West 129 148 3,900 480 Climbing Indianapolis Center
02:45PM 37.5561 -82.7625 291° West 131 151 4,500 540 Climbing Indianapolis Center
02:46PM 37.5681 -82.8103 288° West 137 158 5,100 540 Climbing Indianapolis Center
02:47PM 37.5800 -82.8592 287° West 141 162 5,700 240 Climbing Indianapolis Center
02:48PM 37.5911 -82.9097 286° West 145 167 5,700  Level Indianapolis Center
02:49PM 37.6042 -82.9631 287° West 152 175 5,800 60 Climbing Indianapolis Center
02:50PM 37.6189 -83.0233 287° West 154 177 5,900 -240 Climbing Indianapolis Center
02:51PM 37.6314 -83.0736 287° West 152 175 5,400 -540 Descending Indianapolis Center
02:52PM 37.6528 -83.1269 297° West 164 189 4,900 -540 Descending Indianapolis Center
02:53PM 37.6839 -83.1772 308° West 176 203 4,400 -480 Descending Indianapolis Center
02:54PM 37.6956 -83.2322 285° West 168 193 4,000 -180 Descending Indianapolis Center
02:55PM 37.7056 -83.2942 282° West 161 185 4,100  Climbing Indianapolis Center
02:56PM 37.7181 -83.3444 287° West 156 180 4,000 -60 Descending Indianapolis Center
02:57PM 37.7294 -83.3931 287° West 150 173 4,000  Level Indianapolis Center
02:58PM 37.7403 -83.4422 286° West 147 169 4,000  Level Indianapolis Center
02:59PM 37.7525 -83.4933 287° West 149 171 4,000  Level Indianapolis Center
03:01PM 37.7656 -83.5528 286° West 149 171 4,000  Level Indianapolis Center
03:02PM 37.7781 -83.6050 287° West 152 175 4,000 -60 Level Indianapolis Center
03:03PM 37.7894 -83.6578 285° West 154 177 3,900 -60 Descending Indianapolis Center
03:04PM 37.8022 -83.7100 287° West 155 178 3,900  Level Indianapolis Center
03:05PM 37.8133 -83.7608 285° West 153 176 3,900  Level Indianapolis Center
03:06PM 37.8236 -83.8092 285° West 148 170 4,000  Climbing Indianapolis Center
03:07PM 37.8369 -83.8653 287° West 145 167 4,000  Level Indianapolis Center
03:08PM 37.8489 -83.9150 287° West 145 167 4,000  Level Indianapolis Center
03:09PM 37.8617 -83.9686 287° West 152 175 4,000  Level Indianapolis Center
03:10PM 37.8728 -84.0219 285° West 155 178 4,000  Level Indianapolis Center
03:11PM 37.8836 -84.0728 285° West 152 175 4,000  Level Indianapolis Center
03:12PM 37.8972 -84.1342 286° West 154 177 4,000  Level Indianapolis Center
03:13PM 37.9086 -84.1861 286° West 154 177 4,000  Level Indianapolis Center
03:14PM 37.9206 -84.2369 287° West 152 175 4,000  Level Indianapolis Center
03:15PM 37.9308 -84.2856 285° West 148 170 4,000  Level Indianapolis Center
03:16PM 37.9417 -84.3367 285° West 147 169 4,000  Level Indianapolis Center
03:17PM 37.9528 -84.3875 286° West 149 171 4,000  Level Indianapolis Center
03:18PM 37.9672 -84.4483 287° West 153 176 4,000  Level Indianapolis Center
03:19PM 37.9792 -84.5003 286° West 152 175 4,000  Level Indianapolis Center
03:20PM 37.9903 -84.5506 286° West 151 174 4,000  Level Indianapolis Center
03:21PM 38.0008 -84.6000 285° West 148 170 4,000  Level Indianapolis Center
03:22PM 38.0133 -84.6514 287° West 150 173 4,000  Level Indianapolis Center
03:23PM 38.0253 -84.7122 284° West 151 174 4,000  Level Indianapolis Center
03:24PM 38.0381 -84.7631 288° West 152 175 4,000  Level Indianapolis Center
03:25PM 38.0486 -84.8153 284° West 152 175 4,000  Level Indianapolis Center
03:26PM 38.0603 -84.8675 286° West 153 176 4,000  Level Indianapolis Center
03:27PM 38.0714 -84.9211 285° West 155 178 4,000  Level Indianapolis Center
03:28PM 38.0847 -84.9806 286° West 153 176 4,000  Level Indianapolis Center
03:29PM 38.0950 -85.0319 284° West 151 174 4,000  Level Indianapolis Center
03:31PM 38.1044 -85.0733 286° West 149 171 4,000 -120 Level Indianapolis Center
03:32PM 38.1167 -85.1667 279° West 156 180 3,800 -300 Descending Louisville TRACON
03:34PM 38.1297 -85.2315 284° West  Level FlightAware Approximate
03:34PM 38.1500 -85.3000 284° West 160 184 3,000  Level Louisville TRACON
03:36PM 38.1580 -85.3556 280° West  Level FlightAware Approximate
03:37PM 38.1833 -85.4667 288° West 170 196 2,500  Level Louisville TRACON
03:39PM 38.1909 -85.5197 280° West  Level FlightAware Approximate
03:40PM 38.2333 -85.5833 280° West 140 161 1,700  Level Louisville TRACON
03:42PM 38.2167 -85.6500 288° West  Level FlightAware Approximate
03:43PM 38.2167 -85.6500 288° West  Level FlightAware Approximate
03:49PM 38.2280 -85.6637 288° West  Level Estimated
03:50PM 38.2280 -85.6637 288° West  Level Estimated